MacAlister, Canada
Current Conditions -  °F | °C
As of 5:00 AM on Thursday 27 Nov 2014 (Local Time) from CYWL Reporting Station
Haze Haze  
Wind Chill: 28°   Ceiling: 500
Heat Index: 28°   Visibility: 5mi
Dew Point: 28°   Wind: 3mph
Humidity: 100%   Direction: 320°NW
Pressure: 29.52"   Gusts: NA
Location:  52.45°N, 122.4°W
Report Text: CYWL 271300Z 32003KT 5SM BR OVC005 M02/M02 A2952 RMK ST8 SLP034
Loading
Personal Weather Stations






























Interactive Weather Map New forecast layout! Learn more

10-Day Weather Forecast

Advertisements
Track Severe Weather on mobile